sensor_id;sensor_type;location;lat;lon;timestamp;P1;durP1;ratioP1;P2;durP2;ratioP2
22176;SDS011;11254;50.098;8.726;2023-04-05T00:00:37;9.07;;;4.72;;
22176;SDS011;11254;50.098;8.726;2023-04-05T00:03:06;10.18;;;4.90;;
22176;SDS011;11254;50.098;8.726;2023-04-05T00:05:37;7.78;;;4.60;;
22176;SDS011;11254;50.098;8.726;2023-04-05T00:08:08;8.10;;;4.80;;
22176;SDS011;11254;50.098;8.726;2023-04-05T00:10:39;8.88;;;4.97;;
22176;SDS011;11254;50.098;8.726;2023-04-05T00:13:11;9.00;;;4.63;;
22176;SDS011;11254;50.098;8.726;2023-04-05T00:15:39;9.77;;;4.50;;
22176;SDS011;11254;50.098;8.726;2023-04-05T00:18:09;10.15;;;5.28;;
22176;SDS011;11254;50.098;8.726;2023-04-05T00:20:47;9.73;;;4.70;;
22176;SDS011;11254;50.098;8.726;2023-04-05T00:23:15;8.48;;;4.18;;
22176;SDS011;11254;50.098;8.726;2023-04-05T00:25:45;8.50;;;4.55;;
22176;SDS011;11254;50.098;8.726;2023-04-05T00:28:15;10.02;;;5.03;;
22176;SDS011;11254;50.098;8.726;2023-04-05T00:30:44;8.23;;;4.82;;
22176;SDS011;11254;50.098;8.726;2023-04-05T00:33:13;11.73;;;5.00;;
22176;SDS011;11254;50.098;8.726;2023-04-05T00:35:41;12.90;;;5.20;;
22176;SDS011;11254;50.098;8.726;2023-04-05T00:38:09;9.43;;;4.70;;
22176;SDS011;11254;50.098;8.726;2023-04-05T00:40:38;9.90;;;4.57;;
22176;SDS011;11254;50.098;8.726;2023-04-05T00:43:06;10.85;;;5.07;;
22176;SDS011;11254;50.098;8.726;2023-04-05T00:45:36;7.47;;;4.70;;
22176;SDS011;11254;50.098;8.726;2023-04-05T00:48:06;8.68;;;4.38;;
22176;SDS011;11254;50.098;8.726;2023-04-05T00:50:35;8.98;;;5.30;;
22176;SDS011;11254;50.098;8.726;2023-04-05T00:53:04;10.45;;;4.50;;
22176;SDS011;11254;50.098;8.726;2023-04-05T00:55:33;10.98;;;4.78;;
22176;SDS011;11254;50.098;8.726;2023-04-05T00:58:01;8.98;;;4.30;;
22176;SDS011;11254;50.098;8.726;2023-04-05T01:00:30;8.68;;;4.35;;
22176;SDS011;11254;50.098;8.726;2023-04-05T01:03:00;11.98;;;5.03;;
22176;SDS011;11254;50.098;8.726;2023-04-05T01:05:33;7.18;;;4.22;;
22176;SDS011;11254;50.098;8.726;2023-04-05T01:08:05;10.02;;;4.82;;
22176;SDS011;11254;50.098;8.726;2023-04-05T01:10:35;8.32;;;4.50;;
22176;SDS011;11254;50.098;8.726;2023-04-05T01:13:05;7.93;;;4.25;;
22176;SDS011;11254;50.098;8.726;2023-04-05T01:15:34;9.07;;;4.72;;
22176;SDS011;11254;50.098;8.726;2023-04-05T01:18:04;9.32;;;4.35;;
22176;SDS011;11254;50.098;8.726;2023-04-05T01:20:37;8.82;;;4.28;;
22176;SDS011;11254;50.098;8.726;2023-04-05T01:23:27;8.05;;;4.22;;
22176;SDS011;11254;50.098;8.726;2023-04-05T01:26:16;8.55;;;4.32;;
22176;SDS011;11254;50.098;8.726;2023-04-05T01:28:55;7.60;;;3.85;;
22176;SDS011;11254;50.098;8.726;2023-04-05T01:31:31;10.68;;;4.47;;
22176;SDS011;11254;50.098;8.726;2023-04-05T01:34:04;7.05;;;3.95;;
22176;SDS011;11254;50.098;8.726;2023-04-05T01:36:36;8.38;;;4.00;;
22176;SDS011;11254;50.098;8.726;2023-04-05T01:39:07;10.23;;;4.53;;
22176;SDS011;11254;50.098;8.726;2023-04-05T01:41:37;8.63;;;4.03;;
22176;SDS011;11254;50.098;8.726;2023-04-05T01:44:06;7.72;;;3.97;;
22176;SDS011;11254;50.098;8.726;2023-04-05T01:46:35;8.88;;;3.95;;
22176;SDS011;11254;50.098;8.726;2023-04-05T01:49:04;8.27;;;3.88;;
22176;SDS011;11254;50.098;8.726;2023-04-05T01:51:33;6.95;;;3.65;;
22176;SDS011;11254;50.098;8.726;2023-04-05T01:54:01;9.20;;;4.55;;
22176;SDS011;11254;50.098;8.726;2023-04-05T01:56:30;7.95;;;4.20;;
22176;SDS011;11254;50.098;8.726;2023-04-05T01:58:58;8.23;;;4.25;;
22176;SDS011;11254;50.098;8.726;2023-04-05T02:01:27;7.85;;;4.40;;
22176;SDS011;11254;50.098;8.726;2023-04-05T02:03:57;10.80;;;4.72;;
22176;SDS011;11254;50.098;8.726;2023-04-05T02:06:25;9.10;;;4.45;;
22176;SDS011;11254;50.098;8.726;2023-04-05T02:08:54;8.75;;;4.85;;
22176;SDS011;11254;50.098;8.726;2023-04-05T02:11:26;7.57;;;4.40;;
22176;SDS011;11254;50.098;8.726;2023-04-05T02:13:57;8.60;;;4.72;;
22176;SDS011;11254;50.098;8.726;2023-04-05T02:16:25;7.65;;;4.35;;
22176;SDS011;11254;50.098;8.726;2023-04-05T02:18:54;10.25;;;4.68;;
22176;SDS011;11254;50.098;8.726;2023-04-05T02:21:24;8.15;;;4.70;;
22176;SDS011;11254;50.098;8.726;2023-04-05T02:23:53;8.77;;;4.47;;
22176;SDS011;11254;50.098;8.726;2023-04-05T02:26:21;9.23;;;4.63;;
22176;SDS011;11254;50.098;8.726;2023-04-05T02:28:50;9.93;;;4.40;;
22176;SDS011;11254;50.098;8.726;2023-04-05T02:31:20;8.15;;;4.38;;
22176;SDS011;11254;50.098;8.726;2023-04-05T02:33:48;7.53;;;3.92;;
22176;SDS011;11254;50.098;8.726;2023-04-05T02:36:16;8.15;;;4.43;;
22176;SDS011;11254;50.098;8.726;2023-04-05T02:38:46;7.45;;;4.25;;
22176;SDS011;11254;50.098;8.726;2023-04-05T02:41:15;9.48;;;4.32;;
22176;SDS011;11254;50.098;8.726;2023-04-05T02:43:43;9.38;;;4.20;;
22176;SDS011;11254;50.098;8.726;2023-04-05T02:46:12;9.90;;;4.72;;
22176;SDS011;11254;50.098;8.726;2023-04-05T02:48:41;7.65;;;4.63;;
22176;SDS011;11254;50.098;8.726;2023-04-05T02:51:12;8.02;;;4.03;;
22176;SDS011;11254;50.098;8.726;2023-04-05T02:53:41;8.13;;;4.20;;
22176;SDS011;11254;50.098;8.726;2023-04-05T02:56:14;7.78;;;3.85;;
22176;SDS011;11254;50.098;8.726;2023-04-05T02:58:45;6.82;;;4.10;;
22176;SDS011;11254;50.098;8.726;2023-04-05T03:01:19;9.63;;;4.10;;
22176;SDS011;11254;50.098;8.726;2023-04-05T03:03:48;7.85;;;4.60;;
22176;SDS011;11254;50.098;8.726;2023-04-05T03:06:17;8.48;;;4.63;;
22176;SDS011;11254;50.098;8.726;2023-04-05T03:08:47;9.40;;;4.35;;
22176;SDS011;11254;50.098;8.726;2023-04-05T03:11:21;7.25;;;4.40;;
22176;SDS011;11254;50.098;8.726;2023-04-05T03:13:54;7.68;;;4.25;;
22176;SDS011;11254;50.098;8.726;2023-04-05T03:16:40;9.25;;;4.80;;
22176;SDS011;11254;50.098;8.726;2023-04-05T03:19:34;10.13;;;4.40;;
22176;SDS011;11254;50.098;8.726;2023-04-05T03:22:17;8.07;;;4.35;;
22176;SDS011;11254;50.098;8.726;2023-04-05T03:24:47;8.95;;;4.95;;
22176;SDS011;11254;50.098;8.726;2023-04-05T03:27:18;11.07;;;5.05;;
22176;SDS011;11254;50.098;8.726;2023-04-05T03:29:58;7.90;;;4.47;;
22176;SDS011;11254;50.098;8.726;2023-04-05T03:32:27;9.32;;;4.80;;
22176;SDS011;11254;50.098;8.726;2023-04-05T03:35:03;9.43;;;4.43;;
22176;SDS011;11254;50.098;8.726;2023-04-05T03:37:33;7.95;;;4.10;;
22176;SDS011;11254;50.098;8.726;2023-04-05T03:40:05;7.72;;;4.47;;
22176;SDS011;11254;50.098;8.726;2023-04-05T03:42:37;9.10;;;5.05;;
22176;SDS011;11254;50.098;8.726;2023-04-05T03:45:06;7.68;;;4.22;;
22176;SDS011;11254;50.098;8.726;2023-04-05T03:47:34;8.73;;;4.57;;
22176;SDS011;11254;50.098;8.726;2023-04-05T03:50:06;11.68;;;4.75;;
22176;SDS011;11254;50.098;8.726;2023-04-05T03:52:35;8.32;;;4.45;;
22176;SDS011;11254;50.098;8.726;2023-04-05T03:55:04;11.70;;;4.63;;
22176;SDS011;11254;50.098;8.726;2023-04-05T03:57:34;10.77;;;4.63;;
22176;SDS011;11254;50.098;8.726;2023-04-05T04:00:19;9.40;;;4.45;;
22176;SDS011;11254;50.098;8.726;2023-04-05T04:03:06;9.27;;;4.93;;
22176;SDS011;11254;50.098;8.726;2023-04-05T04:05:39;13.30;;;5.13;;
22176;SDS011;11254;50.098;8.726;2023-04-05T04:08:08;9.80;;;4.35;;
22176;SDS011;11254;50.098;8.726;2023-04-05T04:10:39;10.52;;;4.32;;
22176;SDS011;11254;50.098;8.726;2023-04-05T04:13:30;7.82;;;4.15;;
22176;SDS011;11254;50.098;8.726;2023-04-05T04:16:05;9.02;;;4.68;;
22176;SDS011;11254;50.098;8.726;2023-04-05T04:18:44;11.25;;;4.68;;
22176;SDS011;11254;50.098;8.726;2023-04-05T04:21:36;11.05;;;4.93;;
22176;SDS011;11254;50.098;8.726;2023-04-05T04:24:19;13.13;;;5.28;;
22176;SDS011;11254;50.098;8.726;2023-04-05T04:26:58;10.23;;;4.80;;
22176;SDS011;11254;50.098;8.726;2023-04-05T04:29:40;8.40;;;4.68;;
22176;SDS011;11254;50.098;8.726;2023-04-05T04:32:32;8.05;;;4.82;;
22176;SDS011;11254;50.098;8.726;2023-04-05T04:35:35;10.00;;;5.25;;
22176;SDS011;11254;50.098;8.726;2023-04-05T04:38:14;9.88;;;5.15;;
22176;SDS011;11254;50.098;8.726;2023-04-05T04:41:24;9.00;;;5.00;;
22176;SDS011;11254;50.098;8.726;2023-04-05T04:44:11;7.60;;;4.60;;
22176;SDS011;11254;50.098;8.726;2023-04-05T04:46:59;8.50;;;5.00;;
22176;SDS011;11254;50.098;8.726;2023-04-05T04:49:46;14.73;;;5.43;;
22176;SDS011;11254;50.098;8.726;2023-04-05T04:52:14;8.85;;;4.53;;
22176;SDS011;11254;50.098;8.726;2023-04-05T04:54:43;7.65;;;4.53;;
22176;SDS011;11254;50.098;8.726;2023-04-05T04:57:12;8.43;;;4.45;;
22176;SDS011;11254;50.098;8.726;2023-04-05T04:59:41;10.85;;;4.63;;
22176;SDS011;11254;50.098;8.726;2023-04-05T05:02:09;9.50;;;5.25;;
22176;SDS011;11254;50.098;8.726;2023-04-05T05:04:38;8.50;;;4.97;;
22176;SDS011;11254;50.098;8.726;2023-04-05T05:07:08;9.55;;;5.00;;
22176;SDS011;11254;50.098;8.726;2023-04-05T05:09:38;10.18;;;5.22;;
22176;SDS011;11254;50.098;8.726;2023-04-05T05:12:06;9.90;;;4.82;;
22176;SDS011;11254;50.098;8.726;2023-04-05T05:14:34;10.90;;;4.95;;
22176;SDS011;11254;50.098;8.726;2023-04-05T05:17:03;7.68;;;4.43;;
22176;SDS011;11254;50.098;8.726;2023-04-05T05:19:31;12.02;;;5.28;;
22176;SDS011;11254;50.098;8.726;2023-04-05T05:22:00;10.70;;;5.22;;
22176;SDS011;11254;50.098;8.726;2023-04-05T05:24:30;12.70;;;5.43;;
22176;SDS011;11254;50.098;8.726;2023-04-05T05:26:59;9.98;;;4.90;;
22176;SDS011;11254;50.098;8.726;2023-04-05T05:29:27;11.57;;;5.28;;
22176;SDS011;11254;50.098;8.726;2023-04-05T05:31:56;11.98;;;5.38;;
22176;SDS011;11254;50.098;8.726;2023-04-05T05:34:24;12.20;;;5.50;;
22176;SDS011;11254;50.098;8.726;2023-04-05T05:36:55;10.57;;;5.55;;
22176;SDS011;11254;50.098;8.726;2023-04-05T05:39:24;10.80;;;4.95;;
22176;SDS011;11254;50.098;8.726;2023-04-05T05:41:56;15.10;;;6.10;;
22176;SDS011;11254;50.098;8.726;2023-04-05T05:44:24;12.90;;;5.55;;
22176;SDS011;11254;50.098;8.726;2023-04-05T05:46:53;12.40;;;5.47;;
22176;SDS011;11254;50.098;8.726;2023-04-05T05:49:21;9.13;;;5.43;;
22176;SDS011;11254;50.098;8.726;2023-04-05T05:51:49;9.60;;;5.68;;
22176;SDS011;11254;50.098;8.726;2023-04-05T05:54:19;13.13;;;5.43;;
22176;SDS011;11254;50.098;8.726;2023-04-05T05:56:47;10.88;;;5.72;;
22176;SDS011;11254;50.098;8.726;2023-04-05T05:59:27;12.13;;;5.75;;
22176;SDS011;11254;50.098;8.726;2023-04-05T06:02:13;12.82;;;5.85;;
22176;SDS011;11254;50.098;8.726;2023-04-05T06:05:14;11.57;;;5.65;;
22176;SDS011;11254;50.098;8.726;2023-04-05T06:07:53;12.43;;;5.45;;
22176;SDS011;11254;50.098;8.726;2023-04-05T06:10:41;10.57;;;5.40;;
22176;SDS011;11254;50.098;8.726;2023-04-05T06:14:03;11.10;;;5.68;;
22176;SDS011;11254;50.098;8.726;2023-04-05T06:16:48;12.93;;;6.07;;
22176;SDS011;11254;50.098;8.726;2023-04-05T06:19:35;11.40;;;6.35;;
22176;SDS011;11254;50.098;8.726;2023-04-05T06:22:08;10.88;;;5.90;;
22176;SDS011;11254;50.098;8.726;2023-04-05T06:24:37;10.98;;;6.32;;
22176;SDS011;11254;50.098;8.726;2023-04-05T06:27:06;10.25;;;5.80;;
22176;SDS011;11254;50.098;8.726;2023-04-05T06:29:35;9.35;;;5.13;;
22176;SDS011;11254;50.098;8.726;2023-04-05T06:32:05;11.45;;;5.35;;
22176;SDS011;11254;50.098;8.726;2023-04-05T06:34:33;7.80;;;5.00;;
22176;SDS011;11254;50.098;8.726;2023-04-05T06:37:02;9.75;;;5.40;;
22176;SDS011;11254;50.098;8.726;2023-04-05T06:39:31;9.27;;;4.85;;
22176;SDS011;11254;50.098;8.726;2023-04-05T06:41:59;9.07;;;4.70;;
22176;SDS011;11254;50.098;8.726;2023-04-05T06:44:37;9.93;;;4.82;;
22176;SDS011;11254;50.098;8.726;2023-04-05T06:47:06;8.35;;;4.45;;
22176;SDS011;11254;50.098;8.726;2023-04-05T06:49:35;12.77;;;5.40;;
22176;SDS011;11254;50.098;8.726;2023-04-05T06:52:03;10.02;;;4.88;;
22176;SDS011;11254;50.098;8.726;2023-04-05T06:54:32;10.57;;;4.50;;
22176;SDS011;11254;50.098;8.726;2023-04-05T06:57:00;8.75;;;4.43;;
22176;SDS011;11254;50.098;8.726;2023-04-05T06:59:29;9.52;;;4.63;;
22176;SDS011;11254;50.098;8.726;2023-04-05T07:01:57;9.65;;;5.00;;
22176;SDS011;11254;50.098;8.726;2023-04-05T07:04:27;11.68;;;5.32;;
22176;SDS011;11254;50.098;8.726;2023-04-05T07:07:05;9.77;;;5.10;;
22176;SDS011;11254;50.098;8.726;2023-04-05T07:09:35;8.30;;;4.60;;
22176;SDS011;11254;50.098;8.726;2023-04-05T07:12:06;7.82;;;4.57;;
22176;SDS011;11254;50.098;8.726;2023-04-05T07:14:40;8.82;;;4.25;;
22176;SDS011;11254;50.098;8.726;2023-04-05T07:17:13;9.27;;;4.80;;
22176;SDS011;11254;50.098;8.726;2023-04-05T07:19:43;7.50;;;4.30;;
22176;SDS011;11254;50.098;8.726;2023-04-05T07:22:11;8.75;;;4.43;;
22176;SDS011;11254;50.098;8.726;2023-04-05T07:24:40;10.38;;;4.90;;
22176;SDS011;11254;50.098;8.726;2023-04-05T07:27:08;8.00;;;4.60;;
22176;SDS011;11254;50.098;8.726;2023-04-05T07:29:37;11.68;;;4.60;;
22176;SDS011;11254;50.098;8.726;2023-04-05T07:32:08;8.45;;;4.65;;
22176;SDS011;11254;50.098;8.726;2023-04-05T07:34:37;9.50;;;4.40;;
22176;SDS011;11254;50.098;8.726;2023-04-05T07:37:06;12.65;;;4.55;;
22176;SDS011;11254;50.098;8.726;2023-04-05T07:39:35;10.93;;;4.88;;
22176;SDS011;11254;50.098;8.726;2023-04-05T07:42:03;12.48;;;5.43;;
22176;SDS011;11254;50.098;8.726;2023-04-05T07:44:32;8.60;;;4.43;;
22176;SDS011;11254;50.098;8.726;2023-04-05T07:47:00;8.63;;;4.57;;
22176;SDS011;11254;50.098;8.726;2023-04-05T07:49:29;7.07;;;4.20;;
22176;SDS011;11254;50.098;8.726;2023-04-05T07:51:58;8.52;;;5.05;;
22176;SDS011;11254;50.098;8.726;2023-04-05T07:54:29;9.48;;;4.55;;
22176;SDS011;11254;50.098;8.726;2023-04-05T07:56:58;8.95;;;5.15;;
22176;SDS011;11254;50.098;8.726;2023-04-05T07:59:28;8.40;;;4.35;;
22176;SDS011;11254;50.098;8.726;2023-04-05T08:01:56;7.90;;;4.13;;
22176;SDS011;11254;50.098;8.726;2023-04-05T08:04:41;7.70;;;4.47;;
22176;SDS011;11254;50.098;8.726;2023-04-05T08:07:19;8.35;;;4.40;;
22176;SDS011;11254;50.098;8.726;2023-04-05T08:09:51;7.38;;;3.97;;
22176;SDS011;11254;50.098;8.726;2023-04-05T08:12:22;8.10;;;4.40;;
22176;SDS011;11254;50.098;8.726;2023-04-05T08:14:51;8.18;;;4.55;;
22176;SDS011;11254;50.098;8.726;2023-04-05T08:17:19;6.72;;;4.32;;
22176;SDS011;11254;50.098;8.726;2023-04-05T08:19:49;8.30;;;4.53;;
22176;SDS011;11254;50.098;8.726;2023-04-05T08:22:18;7.75;;;4.20;;
22176;SDS011;11254;50.098;8.726;2023-04-05T08:24:47;7.97;;;4.07;;
22176;SDS011;11254;50.098;8.726;2023-04-05T08:27:16;7.82;;;4.50;;
22176;SDS011;11254;50.098;8.726;2023-04-05T08:29:45;7.47;;;4.25;;
22176;SDS011;11254;50.098;8.726;2023-04-05T08:32:13;8.80;;;4.45;;
22176;SDS011;11254;50.098;8.726;2023-04-05T08:34:42;10.32;;;4.60;;
22176;SDS011;11254;50.098;8.726;2023-04-05T08:37:11;7.50;;;4.63;;
22176;SDS011;11254;50.098;8.726;2023-04-05T08:39:39;6.63;;;4.10;;
22176;SDS011;11254;50.098;8.726;2023-04-05T08:42:10;6.53;;;4.20;;
22176;SDS011;11254;50.098;8.726;2023-04-05T08:44:40;6.93;;;4.15;;
22176;SDS011;11254;50.098;8.726;2023-04-05T08:47:08;7.05;;;4.22;;
22176;SDS011;11254;50.098;8.726;2023-04-05T08:49:41;8.38;;;4.70;;
22176;SDS011;11254;50.098;8.726;2023-04-05T08:52:10;6.05;;;4.22;;
22176;SDS011;11254;50.098;8.726;2023-04-05T08:54:38;7.47;;;4.10;;
22176;SDS011;11254;50.098;8.726;2023-04-05T08:57:06;6.90;;;4.30;;
22176;SDS011;11254;50.098;8.726;2023-04-05T08:59:36;6.38;;;3.78;;
22176;SDS011;11254;50.098;8.726;2023-04-05T09:02:13;6.18;;;4.25;;
22176;SDS011;11254;50.098;8.726;2023-04-05T09:04:46;9.57;;;4.30;;
22176;SDS011;11254;50.098;8.726;2023-04-05T09:07:15;7.72;;;4.22;;
22176;SDS011;11254;50.098;8.726;2023-04-05T09:09:45;6.07;;;3.92;;
22176;SDS011;11254;50.098;8.726;2023-04-05T09:12:14;9.45;;;4.00;;
22176;SDS011;11254;50.098;8.726;2023-04-05T09:14:42;8.57;;;3.95;;
22176;SDS011;11254;50.098;8.726;2023-04-05T09:17:12;5.75;;;3.70;;
22176;SDS011;11254;50.098;8.726;2023-04-05T09:19:42;6.68;;;4.05;;
22176;SDS011;11254;50.098;8.726;2023-04-05T09:22:10;6.88;;;3.80;;
22176;SDS011;11254;50.098;8.726;2023-04-05T09:24:44;6.03;;;4.20;;
22176;SDS011;11254;50.098;8.726;2023-04-05T09:27:16;7.78;;;4.00;;
22176;SDS011;11254;50.098;8.726;2023-04-05T09:29:52;7.85;;;4.38;;
22176;SDS011;11254;50.098;8.726;2023-04-05T09:32:24;7.03;;;4.05;;
22176;SDS011;11254;50.098;8.726;2023-04-05T09:34:53;5.97;;;3.90;;
22176;SDS011;11254;50.098;8.726;2023-04-05T09:37:25;6.53;;;3.78;;
22176;SDS011;11254;50.098;8.726;2023-04-05T09:40:00;6.95;;;4.00;;
22176;SDS011;11254;50.098;8.726;2023-04-05T09:42:29;7.45;;;4.00;;
22176;SDS011;11254;50.098;8.726;2023-04-05T09:44:59;6.53;;;4.05;;
22176;SDS011;11254;50.098;8.726;2023-04-05T09:47:40;8.77;;;4.03;;
22176;SDS011;11254;50.098;8.726;2023-04-05T09:50:18;6.20;;;3.85;;
22176;SDS011;11254;50.098;8.726;2023-04-05T09:52:47;9.85;;;6.10;;
22176;SDS011;11254;50.098;8.726;2023-04-05T09:55:24;9.38;;;4.10;;
22176;SDS011;11254;50.098;8.726;2023-04-05T09:57:53;7.95;;;4.05;;
22176;SDS011;11254;50.098;8.726;2023-04-05T10:00:22;7.28;;;3.72;;
22176;SDS011;11254;50.098;8.726;2023-04-05T10:02:56;7.63;;;4.28;;
22176;SDS011;11254;50.098;8.726;2023-04-05T10:05:32;6.20;;;3.60;;
22176;SDS011;11254;50.098;8.726;2023-04-05T10:08:02;6.00;;;3.53;;
22176;SDS011;11254;50.098;8.726;2023-04-05T10:10:33;6.70;;;4.20;;
22176;SDS011;11254;50.098;8.726;2023-04-05T10:13:05;6.43;;;4.50;;
22176;SDS011;11254;50.098;8.726;2023-04-05T10:15:34;7.85;;;4.32;;
22176;SDS011;11254;50.098;8.726;2023-04-05T10:18:05;8.25;;;4.28;;
22176;SDS011;11254;50.098;8.726;2023-04-05T10:20:38;7.85;;;4.60;;
22176;SDS011;11254;50.098;8.726;2023-04-05T10:23:08;6.72;;;4.25;;
22176;SDS011;11254;50.098;8.726;2023-04-05T10:25:43;8.38;;;4.40;;
22176;SDS011;11254;50.098;8.726;2023-04-05T10:28:20;9.98;;;4.63;;
22176;SDS011;11254;50.098;8.726;2023-04-05T10:30:58;7.88;;;4.65;;
22176;SDS011;11254;50.098;8.726;2023-04-05T10:33:29;8.18;;;4.25;;
22176;SDS011;11254;50.098;8.726;2023-04-05T10:35:59;7.35;;;3.83;;
22176;SDS011;11254;50.098;8.726;2023-04-05T10:38:28;7.97;;;4.45;;
22176;SDS011;11254;50.098;8.726;2023-04-05T10:41:08;7.05;;;4.15;;
22176;SDS011;11254;50.098;8.726;2023-04-05T10:43:38;6.18;;;4.20;;
22176;SDS011;11254;50.098;8.726;2023-04-05T10:46:06;7.38;;;4.10;;
22176;SDS011;11254;50.098;8.726;2023-04-05T10:48:39;7.35;;;3.85;;
22176;SDS011;11254;50.098;8.726;2023-04-05T10:51:11;8.93;;;4.38;;
22176;SDS011;11254;50.098;8.726;2023-04-05T10:53:40;7.80;;;3.85;;
22176;SDS011;11254;50.098;8.726;2023-04-05T10:56:09;5.78;;;3.80;;
22176;SDS011;11254;50.098;8.726;2023-04-05T10:58:39;7.78;;;4.38;;
22176;SDS011;11254;50.098;8.726;2023-04-05T11:01:09;7.68;;;4.22;;
22176;SDS011;11254;50.098;8.726;2023-04-05T11:03:43;8.93;;;3.92;;
22176;SDS011;11254;50.098;8.726;2023-04-05T11:06:18;8.77;;;3.85;;
22176;SDS011;11254;50.098;8.726;2023-04-05T11:08:48;7.93;;;3.85;;
22176;SDS011;11254;50.098;8.726;2023-04-05T11:11:17;8.20;;;4.20;;
22176;SDS011;11254;50.098;8.726;2023-04-05T11:13:47;7.22;;;3.88;;
22176;SDS011;11254;50.098;8.726;2023-04-05T11:16:16;6.15;;;3.58;;
22176;SDS011;11254;50.098;8.726;2023-04-05T11:18:46;7.32;;;4.03;;
22176;SDS011;11254;50.098;8.726;2023-04-05T11:21:21;6.72;;;3.83;;
22176;SDS011;11254;50.098;8.726;2023-04-05T11:26:53;5.68;;;3.60;;
22176;SDS011;11254;50.098;8.726;2023-04-05T11:32:10;5.82;;;3.35;;
22176;SDS011;11254;50.098;8.726;2023-04-05T11:34:41;6.13;;;3.33;;
22176;SDS011;11254;50.098;8.726;2023-04-05T11:37:10;6.28;;;3.30;;
22176;SDS011;11254;50.098;8.726;2023-04-05T11:39:38;6.93;;;3.70;;
22176;SDS011;11254;50.098;8.726;2023-04-05T11:42:08;9.43;;;3.50;;
22176;SDS011;11254;50.098;8.726;2023-04-05T11:44:42;7.50;;;3.90;;
22176;SDS011;11254;50.098;8.726;2023-04-05T11:47:11;8.45;;;4.10;;
22176;SDS011;11254;50.098;8.726;2023-04-05T11:49:39;8.27;;;3.60;;
22176;SDS011;11254;50.098;8.726;2023-04-05T11:52:10;5.90;;;3.22;;
22176;SDS011;11254;50.098;8.726;2023-04-05T11:54:38;6.57;;;3.33;;
22176;SDS011;11254;50.098;8.726;2023-04-05T11:57:12;5.80;;;3.00;;
22176;SDS011;11254;50.098;8.726;2023-04-05T11:59:42;5.78;;;3.50;;
22176;SDS011;11254;50.098;8.726;2023-04-05T12:02:12;6.63;;;3.75;;
22176;SDS011;11254;50.098;8.726;2023-04-05T12:04:53;7.45;;;3.78;;
22176;SDS011;11254;50.098;8.726;2023-04-05T12:07:31;8.82;;;3.03;;
22176;SDS011;11254;50.098;8.726;2023-04-05T12:14:10;5.68;;;3.30;;
22176;SDS011;11254;50.098;8.726;2023-04-05T12:16:39;6.68;;;3.40;;
22176;SDS011;11254;50.098;8.726;2023-04-05T12:19:20;8.25;;;3.55;;
22176;SDS011;11254;50.098;8.726;2023-04-05T12:21:51;6.18;;;3.08;;
22176;SDS011;11254;50.098;8.726;2023-04-05T12:24:21;7.85;;;4.95;;
22176;SDS011;11254;50.098;8.726;2023-04-05T12:26:49;5.72;;;3.42;;
22176;SDS011;11254;50.098;8.726;2023-04-05T12:29:17;7.45;;;3.50;;
22176;SDS011;11254;50.098;8.726;2023-04-05T12:31:46;7.93;;;3.63;;
22176;SDS011;11254;50.098;8.726;2023-04-05T12:34:22;6.65;;;3.83;;
22176;SDS011;11254;50.098;8.726;2023-04-05T12:36:51;8.57;;;3.80;;
22176;SDS011;11254;50.098;8.726;2023-04-05T12:39:20;6.28;;;3.38;;
22176;SDS011;11254;50.098;8.726;2023-04-05T12:41:57;7.00;;;4.00;;
22176;SDS011;11254;50.098;8.726;2023-04-05T12:44:29;6.43;;;3.55;;
22176;SDS011;11254;50.098;8.726;2023-04-05T12:47:00;7.68;;;3.70;;
22176;SDS011;11254;50.098;8.726;2023-04-05T12:49:33;7.60;;;3.53;;
22176;SDS011;11254;50.098;8.726;2023-04-05T12:52:02;7.63;;;4.00;;
22176;SDS011;11254;50.098;8.726;2023-04-05T12:54:32;8.82;;;3.95;;
22176;SDS011;11254;50.098;8.726;2023-04-05T12:57:00;9.80;;;3.80;;
22176;SDS011;11254;50.098;8.726;2023-04-05T12:59:34;6.63;;;3.50;;
22176;SDS011;11254;50.098;8.726;2023-04-05T13:02:03;6.50;;;4.00;;
22176;SDS011;11254;50.098;8.726;2023-04-05T13:04:34;7.65;;;3.67;;
22176;SDS011;11254;50.098;8.726;2023-04-05T13:07:07;6.95;;;3.75;;
22176;SDS011;11254;50.098;8.726;2023-04-05T13:09:36;5.78;;;3.55;;
22176;SDS011;11254;50.098;8.726;2023-04-05T13:12:04;6.78;;;3.72;;
22176;SDS011;11254;50.098;8.726;2023-04-05T13:14:33;8.32;;;4.00;;
22176;SDS011;11254;50.098;8.726;2023-04-05T13:17:01;5.93;;;3.67;;
22176;SDS011;11254;50.098;8.726;2023-04-05T13:19:30;9.23;;;3.55;;
22176;SDS011;11254;50.098;8.726;2023-04-05T13:21:58;6.35;;;3.70;;
22176;SDS011;11254;50.098;8.726;2023-04-05T13:24:27;7.93;;;4.00;;
22176;SDS011;11254;50.098;8.726;2023-04-05T13:26:57;7.57;;;4.30;;
22176;SDS011;11254;50.098;8.726;2023-04-05T13:29:25;8.30;;;4.53;;
22176;SDS011;11254;50.098;8.726;2023-04-05T13:31:54;6.40;;;3.63;;
22176;SDS011;11254;50.098;8.726;2023-04-05T13:34:22;7.45;;;3.83;;
22176;SDS011;11254;50.098;8.726;2023-04-05T13:36:50;9.05;;;3.83;;
22176;SDS011;11254;50.098;8.726;2023-04-05T13:39:19;6.35;;;3.53;;
22176;SDS011;11254;50.098;8.726;2023-04-05T13:41:47;11.02;;;4.20;;
22176;SDS011;11254;50.098;8.726;2023-04-05T13:44:17;7.63;;;3.85;;
22176;SDS011;11254;50.098;8.726;2023-04-05T13:46:45;7.20;;;3.92;;
22176;SDS011;11254;50.098;8.726;2023-04-05T13:49:14;8.25;;;3.83;;
22176;SDS011;11254;50.098;8.726;2023-04-05T13:51:42;9.05;;;3.67;;
22176;SDS011;11254;50.098;8.726;2023-04-05T13:54:11;6.78;;;3.63;;
22176;SDS011;11254;50.098;8.726;2023-04-05T13:56:39;6.35;;;3.70;;
22176;SDS011;11254;50.098;8.726;2023-04-05T13:59:07;7.10;;;3.55;;
22176;SDS011;11254;50.098;8.726;2023-04-05T14:01:41;5.57;;;3.60;;
22176;SDS011;11254;50.098;8.726;2023-04-05T14:04:09;7.72;;;3.88;;
22176;SDS011;11254;50.098;8.726;2023-04-05T14:06:38;7.57;;;4.18;;
22176;SDS011;11254;50.098;8.726;2023-04-05T14:09:06;6.75;;;3.78;;
22176;SDS011;11254;50.098;8.726;2023-04-05T14:11:34;8.40;;;3.60;;
22176;SDS011;11254;50.098;8.726;2023-04-05T14:14:04;6.50;;;3.47;;
22176;SDS011;11254;50.098;8.726;2023-04-05T14:16:32;5.82;;;3.03;;
22176;SDS011;11254;50.098;8.726;2023-04-05T14:19:04;6.82;;;3.42;;
22176;SDS011;11254;50.098;8.726;2023-04-05T14:21:32;8.43;;;3.63;;
22176;SDS011;11254;50.098;8.726;2023-04-05T14:24:02;6.38;;;3.60;;
22176;SDS011;11254;50.098;8.726;2023-04-05T14:26:31;7.35;;;3.88;;
22176;SDS011;11254;50.098;8.726;2023-04-05T14:28:59;8.55;;;3.60;;
22176;SDS011;11254;50.098;8.726;2023-04-05T14:31:28;7.88;;;3.63;;
22176;SDS011;11254;50.098;8.726;2023-04-05T14:33:56;6.25;;;3.45;;
22176;SDS011;11254;50.098;8.726;2023-04-05T14:36:26;7.45;;;3.83;;
22176;SDS011;11254;50.098;8.726;2023-04-05T14:38:55;6.63;;;3.70;;
22176;SDS011;11254;50.098;8.726;2023-04-05T14:41:23;8.25;;;3.40;;
22176;SDS011;11254;50.098;8.726;2023-04-05T14:43:52;6.68;;;3.40;;
22176;SDS011;11254;50.098;8.726;2023-04-05T14:46:21;6.45;;;3.05;;
22176;SDS011;11254;50.098;8.726;2023-04-05T14:48:50;7.40;;;3.00;;
22176;SDS011;11254;50.098;8.726;2023-04-05T14:51:18;6.40;;;3.20;;
22176;SDS011;11254;50.098;8.726;2023-04-05T14:53:48;5.05;;;2.78;;
22176;SDS011;11254;50.098;8.726;2023-04-05T14:56:17;6.53;;;3.55;;
22176;SDS011;11254;50.098;8.726;2023-04-05T14:58:45;6.40;;;2.97;;
22176;SDS011;11254;50.098;8.726;2023-04-05T15:01:14;6.55;;;3.17;;
22176;SDS011;11254;50.098;8.726;2023-04-05T15:03:42;5.55;;;3.35;;
22176;SDS011;11254;50.098;8.726;2023-04-05T15:06:13;8.73;;;3.47;;
22176;SDS011;11254;50.098;8.726;2023-04-05T15:08:42;6.15;;;3.13;;
22176;SDS011;11254;50.098;8.726;2023-04-05T15:11:12;5.47;;;3.00;;
22176;SDS011;11254;50.098;8.726;2023-04-05T15:13:40;6.22;;;3.40;;
22176;SDS011;11254;50.098;8.726;2023-04-05T15:16:09;7.78;;;3.40;;
22176;SDS011;11254;50.098;8.726;2023-04-05T15:18:38;6.28;;;3.28;;
22176;SDS011;11254;50.098;8.726;2023-04-05T15:21:06;10.63;;;3.65;;